createdAt,value
2017-06-28T00:01:28.157Z,21.40
2017-06-28T00:03:57.229Z,18.90
2017-06-28T00:06:26.299Z,20.50
2017-06-28T00:08:56.172Z,18.53
2017-06-28T00:11:25.332Z,20.27
2017-06-28T00:13:55.144Z,19.53
2017-06-28T00:16:24.207Z,19.17
2017-06-28T00:18:53.573Z,19.00
2017-06-28T00:21:22.680Z,20.20
2017-06-28T00:23:51.732Z,19.70
2017-06-28T00:26:21.340Z,19.80
2017-06-28T00:28:50.436Z,20.73
2017-06-28T00:31:20.269Z,19.90
2017-06-28T00:33:49.354Z,20.77
2017-06-28T00:36:18.421Z,21.30
2017-06-28T00:38:48.271Z,20.67
2017-06-28T00:41:17.405Z,19.93
2017-06-28T00:43:46.448Z,20.20
2017-06-28T00:46:15.546Z,20.70
2017-06-28T00:48:44.602Z,21.87
2017-06-28T00:51:13.996Z,21.57
2017-06-28T00:53:43.589Z,20.40
2017-06-28T00:56:12.720Z,20.73
2017-06-28T00:58:42.573Z,19.23
2017-06-28T01:01:11.619Z,20.23
2017-06-28T01:03:40.724Z,21.60
2017-06-28T01:06:10.625Z,19.30
2017-06-28T01:08:39.686Z,18.30
2017-06-28T01:11:09.111Z,20.53
2017-06-28T01:13:38.164Z,19.97
2017-06-28T01:16:08.039Z,19.57
2017-06-28T01:18:37.419Z,20.07
2017-06-28T01:21:06.474Z,20.53
2017-06-28T01:23:35.597Z,21.43
2017-06-28T01:26:05.064Z,21.57
2017-06-28T01:28:34.893Z,21.50
2017-06-28T01:31:03.952Z,20.80
2017-06-28T01:33:33.863Z,21.63
2017-06-28T01:36:02.940Z,19.87
2017-06-28T01:38:31.984Z,20.03
2017-06-28T01:41:01.072Z,20.90
2017-06-28T01:43:30.136Z,20.50
2017-06-28T01:45:59.185Z,21.23
2017-06-28T01:48:28.270Z,20.30
2017-06-28T01:50:57.351Z,19.97
2017-06-28T01:53:26.444Z,18.23
2017-06-28T01:55:55.524Z,21.03
2017-06-28T01:58:25.361Z,20.40
2017-06-28T02:00:55.188Z,21.27
2017-06-28T02:03:24.253Z,20.70
2017-06-28T02:05:54.074Z,21.73
2017-06-28T02:08:23.903Z,21.23
2017-06-28T02:10:52.984Z,19.73
2017-06-28T02:13:22.827Z,22.00
2017-06-28T02:15:51.887Z,19.90
2017-06-28T02:18:20.976Z,19.93
2017-06-28T02:20:50.038Z,19.90
2017-06-28T02:23:19.094Z,20.00
2017-06-28T02:25:48.186Z,19.63
2017-06-28T02:28:17.235Z,18.53
2017-06-28T02:30:46.285Z,20.27
2017-06-28T02:33:15.383Z,19.20
2017-06-28T02:35:44.491Z,20.23
2017-06-28T02:38:13.643Z,19.90
2017-06-28T02:40:42.744Z,19.07
2017-06-28T02:43:11.875Z,20.37
2017-06-28T02:45:40.992Z,20.43
2017-06-28T02:48:10.063Z,20.00
2017-06-28T02:50:39.126Z,19.63
2017-06-28T02:53:08.226Z,18.70
2017-06-28T02:55:37.290Z,19.20
2017-06-28T02:58:07.107Z,20.60
2017-06-28T03:00:36.940Z,20.03
2017-06-28T03:03:06.007Z,20.53
2017-06-28T03:05:35.071Z,21.43
2017-06-28T03:08:04.196Z,20.93
2017-06-28T03:10:33.261Z,21.37
2017-06-28T03:13:02.355Z,21.00
2017-06-28T03:15:31.424Z,20.80
2017-06-28T03:18:00.516Z,19.83
2017-06-28T03:20:29.888Z,20.23
2017-06-28T03:22:58.984Z,19.63
2017-06-28T03:25:28.060Z,19.67
2017-06-28T03:27:57.144Z,17.30
2017-06-28T03:30:26.220Z,20.70
2017-06-28T03:32:55.310Z,19.40
2017-06-28T03:35:24.383Z,19.90
2017-06-28T03:37:53.506Z,18.53
2017-06-28T03:40:22.556Z,18.60
2017-06-28T03:42:51.632Z,19.33
2017-06-28T03:45:20.707Z,18.77
2017-06-28T03:47:49.784Z,19.30
2017-06-28T03:50:18.880Z,18.40
2017-06-28T03:52:47.955Z,17.77
2017-06-28T03:55:17.024Z,18.30
2017-06-28T03:57:46.352Z,18.10
2017-06-28T04:00:15.407Z,18.20
2017-06-28T04:02:44.473Z,19.03
2017-06-28T04:05:13.592Z,16.60
2017-06-28T04:07:42.640Z,17.50
2017-06-28T04:10:11.741Z,16.77
2017-06-28T04:12:40.830Z,17.23
2017-06-28T04:15:09.932Z,15.83
2017-06-28T04:17:38.995Z,15.50
2017-06-28T04:20:08.073Z,16.37
2017-06-28T04:22:37.116Z,16.67
2017-06-28T04:25:06.155Z,15.30
2017-06-28T04:27:35.221Z,15.97
2017-06-28T04:30:04.325Z,13.10
2017-06-28T04:32:33.444Z,16.27
2017-06-28T04:35:02.493Z,15.10
2017-06-28T04:37:31.544Z,15.87
2017-06-28T04:40:00.613Z,15.60
2017-06-28T04:42:29.655Z,12.70
2017-06-28T04:44:58.736Z,14.23
2017-06-28T04:47:27.799Z,15.07
2017-06-28T04:49:57.119Z,13.73
2017-06-28T04:52:26.172Z,14.13
2017-06-28T04:54:55.237Z,14.33
2017-06-28T04:57:24.308Z,14.83
2017-06-28T04:59:53.352Z,14.23
2017-06-28T05:02:22.412Z,13.27
2017-06-28T05:07:29.569Z,13.50
2017-06-28T05:09:58.612Z,13.20
2017-06-28T05:12:27.680Z,13.83
2017-06-28T05:14:56.754Z,14.77
2017-06-28T05:17:25.813Z,12.20
2017-06-28T05:19:54.888Z,15.00
2017-06-28T05:22:23.970Z,14.40
2017-06-28T05:24:53.282Z,15.90
2017-06-28T05:27:22.360Z,14.20
2017-06-28T05:29:51.460Z,14.50
2017-06-28T05:32:20.523Z,14.70
2017-06-28T05:34:49.592Z,14.40
2017-06-28T05:37:18.962Z,13.60
2017-06-28T05:39:48.025Z,14.87
2017-06-28T05:42:17.154Z,15.13
2017-06-28T05:44:46.191Z,15.87
2017-06-28T05:47:15.335Z,15.00
2017-06-28T05:49:44.410Z,17.23
2017-06-28T05:52:13.443Z,17.67
2017-06-28T05:54:42.524Z,16.20
2017-06-28T05:57:11.644Z,16.30
2017-06-28T05:59:40.703Z,18.20
2017-06-28T06:02:09.785Z,16.37
2017-06-28T06:04:38.948Z,16.47
2017-06-28T06:07:08.042Z,16.50
2017-06-28T06:09:37.164Z,17.50
2017-06-28T06:12:06.307Z,17.80
2017-06-28T06:14:35.383Z,16.97
2017-06-28T06:17:04.656Z,16.83
2017-06-28T06:19:33.922Z,17.27
2017-06-28T06:22:02.972Z,15.87
2017-06-28T06:24:32.065Z,15.40
2017-06-28T06:27:01.164Z,13.37
2017-06-28T06:29:30.219Z,13.17
2017-06-28T06:31:59.317Z,14.67
2017-06-28T06:34:28.389Z,12.90
2017-06-28T06:36:57.463Z,10.23
2017-06-28T06:39:26.515Z,10.60
2017-06-28T06:41:55.592Z,11.03
2017-06-28T06:44:24.661Z,9.60
2017-06-28T06:46:53.715Z,9.53
2017-06-28T06:49:22.789Z,10.10
2017-06-28T06:51:51.859Z,9.47
2017-06-28T06:54:21.135Z,9.30
2017-06-28T06:56:50.224Z,9.93
2017-06-28T06:59:19.256Z,9.60
2017-06-28T07:01:48.345Z,10.30
2017-06-28T07:04:17.473Z,9.30
2017-06-28T07:06:46.550Z,10.60
2017-06-28T07:09:16.029Z,8.67
2017-06-28T07:11:45.125Z,9.37
2017-06-28T07:14:14.169Z,8.77
2017-06-28T07:16:43.213Z,9.13
2017-06-28T07:19:12.287Z,9.07
2017-06-28T07:21:41.336Z,8.87
2017-06-28T07:24:10.446Z,8.10
2017-06-28T07:26:39.503Z,8.67
2017-06-28T07:29:08.621Z,8.60
2017-06-28T07:31:37.666Z,8.80
2017-06-28T07:34:06.992Z,9.37
2017-06-28T07:36:36.290Z,9.50
2017-06-28T07:39:05.342Z,9.17
2017-06-28T07:41:34.469Z,9.03
2017-06-28T07:44:03.553Z,8.80
2017-06-28T07:46:32.611Z,9.90
2017-06-28T07:49:01.655Z,9.87
2017-06-28T07:51:30.757Z,8.80
2017-06-28T07:53:59.842Z,10.47
2017-06-28T07:56:29.972Z,9.10
2017-06-28T07:58:59.060Z,9.60
2017-06-28T08:01:28.123Z,10.03
2017-06-28T08:03:57.203Z,8.43
2017-06-28T08:06:26.235Z,10.67
2017-06-28T08:08:55.280Z,9.63
2017-06-28T08:11:24.369Z,8.43
2017-06-28T08:13:53.425Z,8.10
2017-06-28T08:16:22.505Z,9.23
2017-06-28T08:18:51.619Z,8.97
2017-06-28T08:21:20.867Z,7.87
2017-06-28T08:23:49.918Z,7.47
2017-06-28T08:26:18.976Z,7.90
2017-06-28T08:28:48.054Z,7.77
2017-06-28T08:31:17.374Z,6.40
2017-06-28T08:33:46.431Z,7.00
2017-06-28T08:36:15.518Z,7.23
2017-06-28T08:38:44.551Z,6.90
2017-06-28T08:41:13.674Z,5.90
2017-06-28T08:43:42.736Z,5.80
2017-06-28T08:46:11.771Z,7.00
2017-06-28T08:48:41.525Z,6.67
2017-06-28T08:51:10.704Z,6.10
2017-06-28T08:53:39.795Z,6.70
2017-06-28T08:56:08.888Z,6.20
2017-06-28T08:58:37.935Z,5.90
2017-06-28T09:01:07.028Z,6.63
2017-06-28T09:03:36.119Z,6.27
2017-06-28T09:06:05.235Z,5.90
2017-06-28T09:08:34.274Z,5.30
2017-06-28T09:11:03.334Z,5.13
2017-06-28T09:13:32.627Z,5.13
2017-06-28T09:16:01.681Z,4.47
2017-06-28T09:18:30.761Z,5.30
2017-06-28T09:20:59.832Z,5.10
2017-06-28T09:23:28.904Z,5.30
2017-06-28T09:25:57.963Z,5.23
2017-06-28T09:28:27.036Z,5.67
2017-06-28T09:30:56.096Z,5.30
2017-06-28T09:33:25.173Z,4.90
2017-06-28T09:35:54.235Z,4.63
2017-06-28T09:38:23.331Z,5.13
2017-06-28T09:40:52.368Z,5.70
2017-06-28T09:43:21.460Z,5.90
2017-06-28T09:45:50.512Z,5.63
2017-06-28T09:48:19.584Z,5.57
2017-06-28T09:50:48.633Z,5.90
2017-06-28T09:53:17.734Z,5.70
2017-06-28T09:55:46.760Z,5.93
2017-06-28T09:58:15.876Z,7.00
2017-06-28T10:00:44.989Z,6.70
2017-06-28T10:03:14.064Z,6.73
2017-06-28T10:05:43.169Z,7.20
2017-06-28T10:08:12.251Z,7.53
2017-06-28T10:10:41.413Z,7.80
2017-06-28T10:13:10.475Z,7.80
2017-06-28T10:15:39.551Z,7.93
2017-06-28T10:18:08.667Z,8.60
2017-06-28T10:20:37.756Z,9.73
2017-06-28T10:23:06.825Z,9.37
2017-06-28T10:25:35.908Z,9.10
2017-06-28T10:28:04.984Z,9.77
2017-06-28T10:30:34.040Z,9.83
2017-06-28T10:33:03.080Z,10.93
2017-06-28T10:35:32.176Z,10.00
2017-06-28T10:38:01.245Z,8.37
2017-06-28T10:40:30.335Z,8.87
2017-06-28T10:42:59.376Z,7.60
2017-06-28T10:45:28.430Z,7.70
2017-06-28T10:47:57.521Z,7.57
2017-06-28T10:50:26.568Z,7.07
2017-06-28T10:52:55.653Z,6.30
2017-06-28T10:55:24.903Z,6.10
2017-06-28T10:57:53.980Z,6.60
2017-06-28T11:00:23.066Z,6.40
2017-06-28T11:02:52.099Z,5.60
2017-06-28T11:05:21.190Z,6.27
2017-06-28T11:07:50.273Z,5.80
2017-06-28T11:10:19.357Z,5.50
2017-06-28T11:12:48.381Z,4.70
2017-06-28T11:15:17.535Z,5.10
2017-06-28T11:17:46.615Z,5.47
2017-06-28T11:20:15.671Z,4.80
2017-06-28T11:22:46.788Z,5.60
2017-06-28T11:25:15.901Z,4.90
2017-06-28T11:27:44.972Z,5.40
2017-06-28T11:30:14.253Z,4.40
2017-06-28T11:32:43.402Z,4.60
2017-06-28T11:35:12.440Z,4.20
2017-06-28T11:37:41.503Z,3.77
2017-06-28T11:40:10.844Z,3.40
2017-06-28T11:42:39.861Z,3.53
2017-06-28T11:45:09.954Z,4.13
2017-06-28T11:47:39.036Z,4.40
2017-06-28T11:50:08.090Z,4.60
2017-06-28T11:52:37.162Z,3.93
2017-06-28T11:55:06.533Z,4.13
2017-06-28T11:57:35.590Z,3.70
2017-06-28T12:00:04.680Z,3.67
2017-06-28T12:02:33.772Z,3.33
2017-06-28T12:05:02.832Z,3.33
2017-06-28T12:07:32.973Z,3.37
2017-06-28T12:10:02.112Z,3.57
2017-06-28T12:12:31.152Z,3.60
2017-06-28T12:15:00.287Z,3.57
2017-06-28T12:17:29.388Z,3.67
2017-06-28T12:19:58.694Z,3.53
2017-06-28T12:22:27.755Z,3.73
2017-06-28T12:24:57.793Z,2.97
2017-06-28T12:27:26.848Z,3.97
2017-06-28T12:29:55.925Z,3.17
2017-06-28T12:32:25.308Z,3.03
2017-06-28T12:34:54.352Z,3.43
2017-06-28T12:37:23.476Z,3.50
2017-06-28T12:39:52.525Z,3.27
2017-06-28T12:42:21.585Z,3.20
2017-06-28T12:44:50.638Z,3.77
2017-06-28T12:47:19.702Z,2.90
2017-06-28T12:49:48.793Z,3.60
2017-06-28T12:52:17.863Z,3.30
2017-06-28T12:54:47.132Z,3.20
2017-06-28T12:57:16.346Z,3.63
2017-06-28T12:59:45.387Z,3.33
2017-06-28T13:02:14.462Z,3.27
2017-06-28T13:04:43.527Z,3.00
2017-06-28T13:07:12.842Z,3.53
2017-06-28T13:09:42.152Z,2.80
2017-06-28T13:12:11.266Z,2.90
2017-06-28T13:14:40.333Z,3.20
2017-06-28T13:17:09.386Z,2.80
2017-06-28T13:19:38.680Z,3.10
2017-06-28T13:22:07.725Z,2.70
2017-06-28T13:24:36.829Z,2.90
2017-06-28T13:27:05.932Z,2.83
2017-06-28T13:29:35.006Z,3.30
2017-06-28T13:32:04.074Z,3.00
2017-06-28T13:34:33.136Z,3.00
2017-06-28T13:37:02.234Z,3.03
2017-06-28T13:39:31.327Z,2.80
2017-06-28T13:42:00.425Z,3.20
2017-06-28T13:44:29.553Z,2.60
2017-06-28T13:46:58.601Z,2.43
2017-06-28T13:49:27.664Z,2.07
2017-06-28T13:51:56.743Z,2.37
2017-06-28T13:54:25.800Z,2.70
2017-06-28T13:56:54.868Z,3.20
2017-06-28T13:59:23.937Z,2.93
2017-06-28T14:01:52.991Z,3.30
2017-06-28T14:04:22.064Z,3.20
2017-06-28T14:06:51.132Z,3.30
2017-06-28T14:09:20.244Z,2.60
2017-06-28T14:11:49.514Z,2.97
2017-06-28T14:14:18.574Z,3.20
2017-06-28T14:16:47.649Z,3.07
2017-06-28T14:19:16.750Z,2.93
2017-06-28T14:21:45.832Z,3.10
2017-06-28T14:24:14.927Z,3.80
2017-06-28T14:26:44.117Z,3.30
2017-06-28T14:29:20.894Z,3.30
2017-06-28T14:31:49.982Z,3.03
2017-06-28T14:34:19.061Z,3.70
2017-06-28T14:36:48.152Z,2.93
2017-06-28T14:39:17.186Z,3.40
2017-06-28T14:41:46.274Z,3.37
2017-06-28T14:44:15.355Z,2.77
2017-06-28T14:46:44.407Z,2.73
2017-06-28T14:49:13.599Z,1.83
2017-06-28T14:51:42.736Z,2.00
2017-06-28T14:54:13.019Z,2.03
2017-06-28T14:56:42.327Z,1.90
2017-06-28T14:59:11.393Z,2.10
2017-06-28T15:01:40.472Z,2.03
2017-06-28T15:04:09.565Z,2.37
2017-06-28T15:06:38.645Z,2.30
2017-06-28T15:09:09.772Z,2.20
2017-06-28T15:11:39.655Z,1.87
2017-06-28T15:14:08.723Z,1.90
2017-06-28T15:16:38.444Z,2.07
2017-06-28T15:19:07.622Z,1.70
2017-06-28T15:21:36.702Z,1.60
2017-06-28T15:24:06.556Z,1.50
2017-06-28T15:26:36.398Z,1.20
2017-06-28T15:29:05.515Z,1.63
2017-06-28T15:31:34.583Z,1.50
2017-06-28T15:34:03.674Z,1.47
2017-06-28T15:36:32.764Z,1.23
2017-06-28T15:39:02.071Z,1.67
2017-06-28T15:41:31.168Z,1.77
2017-06-28T15:44:00.234Z,1.67
2017-06-28T15:46:29.323Z,1.47
2017-06-28T15:48:58.429Z,1.60
2017-06-28T15:51:27.586Z,1.90
2017-06-28T15:54:15.031Z,1.70
2017-06-28T15:56:47.627Z,2.07
2017-06-28T15:59:16.687Z,2.37
2017-06-28T16:01:45.766Z,2.50
2017-06-28T16:10:29.373Z,3.00
2017-06-28T16:12:58.441Z,2.90
2017-06-28T16:15:27.721Z,2.30
2017-06-28T16:17:56.829Z,2.90
2017-06-28T16:20:25.932Z,3.37
2017-06-28T16:22:55.196Z,3.87
2017-06-28T16:25:24.293Z,3.50
2017-06-28T16:27:53.484Z,3.60
2017-06-28T16:30:22.561Z,3.50
2017-06-28T16:32:51.718Z,4.07
2017-06-28T16:35:20.789Z,3.93
2017-06-28T16:37:50.100Z,3.93
2017-06-28T16:40:19.221Z,4.27
2017-06-28T16:42:48.988Z,3.93
2017-06-28T16:45:18.041Z,4.80
2017-06-28T16:47:47.144Z,4.20
2017-06-28T16:50:16.239Z,4.93
2017-06-28T16:52:45.287Z,5.40
2017-06-28T16:55:14.345Z,5.20
2017-06-28T16:57:43.438Z,4.33
2017-06-28T17:00:12.513Z,4.20
2017-06-28T17:02:41.706Z,4.50
2017-06-28T17:05:10.803Z,3.37
2017-06-28T17:07:40.123Z,4.27
2017-06-28T17:10:09.205Z,4.83
2017-06-28T17:12:39.170Z,4.70
2017-06-28T17:15:08.260Z,5.03
2017-06-28T17:17:37.312Z,5.17
2017-06-28T17:20:06.400Z,5.33
2017-06-28T17:22:35.497Z,5.50
2017-06-28T17:25:04.613Z,6.40
2017-06-28T17:27:33.673Z,5.53
2017-06-28T17:30:02.761Z,6.50
2017-06-28T17:32:31.828Z,6.80
2017-06-28T17:35:00.903Z,6.30
2017-06-28T17:37:29.951Z,6.50
2017-06-28T17:39:59.034Z,6.23
2017-06-28T17:42:28.127Z,6.30
2017-06-28T17:44:57.167Z,5.77
2017-06-28T17:47:26.279Z,6.60
2017-06-28T17:49:55.361Z,6.10
2017-06-28T17:52:24.435Z,5.03
2017-06-28T17:54:53.476Z,6.33
2017-06-28T17:57:22.529Z,5.80
2017-06-28T17:59:51.606Z,5.77
2017-06-28T18:02:21.718Z,5.30
2017-06-28T18:04:51.167Z,5.50
2017-06-28T18:07:20.203Z,5.50
2017-06-28T18:09:49.256Z,5.47
2017-06-28T18:12:18.332Z,6.90
2017-06-28T18:14:47.375Z,6.27
2017-06-28T18:17:16.482Z,5.57
2017-06-28T18:19:46.035Z,6.50
2017-06-28T18:22:15.128Z,5.73
2017-06-28T18:24:44.233Z,5.63
2017-06-28T18:27:13.306Z,6.13
2017-06-28T18:29:42.400Z,5.60
2017-06-28T18:32:11.502Z,5.97
2017-06-28T18:34:40.592Z,5.67
2017-06-28T18:37:10.803Z,5.33
2017-06-28T18:39:39.840Z,5.57
2017-06-28T18:42:08.966Z,6.23
2017-06-28T18:44:38.040Z,5.90
2017-06-28T18:47:07.126Z,6.20
2017-06-28T18:49:36.452Z,6.17
2017-06-28T18:52:06.235Z,5.57
2017-06-28T18:54:35.298Z,5.23
2017-06-28T18:57:05.154Z,4.80
2017-06-28T18:59:35.236Z,6.43
2017-06-28T19:02:04.813Z,6.23
2017-06-28T19:04:33.879Z,5.23
2017-06-28T19:07:02.952Z,5.27
2017-06-28T19:09:32.044Z,5.80
2017-06-28T19:12:01.125Z,6.10
2017-06-28T19:14:30.188Z,6.20
2017-06-28T19:16:59.256Z,6.40
2017-06-28T19:19:28.354Z,7.40
2017-06-28T19:21:57.836Z,6.23
2017-06-28T19:24:26.928Z,7.27
2017-06-28T19:26:56.075Z,8.30
2017-06-28T19:29:25.147Z,8.20
2017-06-28T19:31:54.227Z,8.97
2017-06-28T19:34:23.292Z,9.83
2017-06-28T19:36:52.415Z,9.80
2017-06-28T19:39:21.498Z,10.37
2017-06-28T19:41:50.604Z,10.90
2017-06-28T19:44:19.866Z,10.27
2017-06-28T19:46:48.921Z,10.63
2017-06-28T19:49:18.935Z,10.83
2017-06-28T19:51:48.043Z,10.13
2017-06-28T19:54:17.176Z,11.93
2017-06-28T19:56:46.322Z,10.07
2017-06-28T19:59:15.957Z,11.60
2017-06-28T20:01:45.292Z,12.07
2017-06-28T20:04:15.113Z,11.20
2017-06-28T20:06:44.222Z,11.17
2017-06-28T20:09:13.302Z,10.90
2017-06-28T20:11:42.410Z,10.33
2017-06-28T20:14:11.773Z,12.00
2017-06-28T20:16:41.612Z,12.30
2017-06-28T20:19:10.665Z,12.07
2017-06-28T20:21:40.543Z,12.30
2017-06-28T20:24:09.652Z,12.40
2017-06-28T20:26:38.716Z,12.70
2017-06-28T20:29:08.593Z,13.10
2017-06-28T20:31:37.920Z,12.93
2017-06-28T20:34:07.302Z,11.90
2017-06-28T20:36:36.420Z,13.50
2017-06-28T20:39:05.561Z,13.03
2017-06-28T20:41:35.288Z,13.83
2017-06-28T20:44:04.343Z,13.07
2017-06-28T20:46:33.430Z,13.07
2017-06-28T20:49:02.504Z,13.57
2017-06-28T20:51:31.560Z,13.60
2017-06-28T20:54:00.689Z,13.30
2017-06-28T20:56:29.774Z,14.33
2017-06-28T20:58:59.661Z,15.17
2017-06-28T21:01:28.721Z,14.00
2017-06-28T21:03:57.947Z,13.33
2017-06-28T21:06:26.991Z,14.57
2017-06-28T21:08:56.821Z,14.80
2017-06-28T21:11:25.920Z,16.43
2017-06-28T21:13:54.994Z,15.80
2017-06-28T21:16:24.119Z,15.07
2017-06-28T21:18:53.156Z,14.03
2017-06-28T21:21:22.233Z,15.47
2017-06-28T21:23:51.572Z,14.27
2017-06-28T21:26:21.436Z,14.87
2017-06-28T21:28:50.519Z,15.23
2017-06-28T21:31:19.581Z,16.30
2017-06-28T21:33:48.693Z,14.43
2017-06-28T21:36:17.757Z,16.40
2017-06-28T21:38:47.997Z,14.80
2017-06-28T21:41:17.830Z,14.27
2017-06-28T21:43:46.894Z,15.23
2017-06-28T21:46:15.967Z,15.40
2017-06-28T21:48:45.031Z,15.77
2017-06-28T21:51:14.951Z,15.23
2017-06-28T21:53:44.022Z,15.63
2017-06-28T21:56:13.137Z,16.00
2017-06-28T21:58:42.273Z,16.00
2017-06-28T22:01:11.355Z,15.70
2017-06-28T22:03:40.440Z,16.83
2017-06-28T22:06:09.512Z,16.90
2017-06-28T22:08:38.592Z,16.10
2017-06-28T22:11:07.712Z,16.30
2017-06-28T22:13:36.892Z,15.90
2017-06-28T22:16:05.961Z,17.13
2017-06-28T22:19:05.693Z,16.40
2017-06-28T22:21:34.780Z,15.57
2017-06-28T22:24:03.912Z,16.70
2017-06-28T22:26:32.964Z,15.57
2017-06-28T22:29:02.057Z,17.90
2017-06-28T22:31:31.119Z,16.37
2017-06-28T22:34:00.177Z,16.73
2017-06-28T22:36:29.229Z,16.63
2017-06-28T22:38:59.071Z,15.70
2017-06-28T22:41:28.176Z,13.67
2017-06-28T22:43:57.219Z,14.43
2017-06-28T22:46:26.600Z,13.73
2017-06-28T22:48:55.668Z,13.30
2017-06-28T22:51:24.728Z,11.67
2017-06-28T22:53:53.809Z,11.87
2017-06-28T22:56:23.649Z,11.77
2017-06-28T22:58:52.691Z,12.00
2017-06-28T23:01:21.748Z,10.83
2017-06-28T23:03:51.056Z,11.07
2017-06-28T23:06:20.120Z,10.17
2017-06-28T23:08:49.156Z,9.37
2017-06-28T23:11:18.252Z,9.53
2017-06-28T23:13:47.354Z,9.70
2017-06-28T23:16:17.229Z,9.33
2017-06-28T23:18:46.965Z,8.80
2017-06-28T23:21:16.832Z,9.47
2017-06-28T23:23:45.866Z,9.50
2017-06-28T23:26:14.955Z,11.37
2017-06-28T23:28:44.042Z,10.87
2017-06-28T23:31:13.524Z,11.53
2017-06-28T23:33:42.930Z,10.33
2017-06-28T23:36:11.999Z,10.87
2017-06-28T23:38:41.058Z,11.70
2017-06-28T23:41:10.965Z,10.97
2017-06-28T23:43:40.673Z,10.60
2017-06-28T23:46:10.617Z,10.00
2017-06-28T23:48:39.683Z,11.77
2017-06-28T23:51:08.767Z,10.10
2017-06-28T23:53:37.834Z,9.80
2017-06-28T23:56:06.926Z,10.40
2017-06-28T23:58:36.015Z,9.40
